Time;durP1;ratioP1;P1;durP2;ratioP2;P2;SDS_P1;SDS_P2;PMS_P1;PMS_P2;Temp;Humidity;BMP_temperature;BMP_pressure;BME280_temperature;BME280_humidity;BME280_pressure;Samples;Min_cycle;Max_cycle;Signal;HPM_P1;HPM_P2
2021/06/07 00:35:14;;;;;;;28.73;24.33;;;17.90;99.90;;;;;;5720218;23;20485;-66
2021/06/07 00:37:40;;;;;;;28.67;24.63;;;17.90;99.90;;;;;;4976698;28;20494;-68
2021/06/07 00:40:07;;;;;;;30.57;27.20;;;17.80;99.90;;;;;;4976636;28;20455;-67
2021/06/07 00:42:34;;;;;;;28.80;25.70;;;17.80;99.90;;;;;;4976477;28;20469;-66
2021/06/07 00:45:00;;;;;;;27.30;24.43;;;17.80;99.90;;;;;;4976430;28;20482;-67
2021/06/07 00:47:27;;;;;;;30.17;24.87;;;17.80;99.90;;;;;;4976325;28;20460;-68
2021/06/07 00:49:53;;;;;;;28.10;25.00;;;17.80;99.90;;;;;;4976366;28;20458;-68
2021/06/07 00:52:21;;;;;;;27.87;24.97;;;17.80;99.90;;;;;;4976145;28;20458;-68
2021/06/07 00:54:47;;;;;;;27.97;25.20;;;17.90;99.90;;;;;;4976137;28;20467;-68
2021/06/07 00:57:13;;;;;;;27.17;23.90;;;17.90;99.90;;;;;;4975707;28;20455;-68
2021/06/07 00:59:39;;;;;;;29.20;25.13;;;17.90;99.90;;;;;;4975738;28;20949;-67
2021/06/07 01:02:06;;;;;;;30.73;26.30;;;17.90;99.90;;;;;;4976031;28;20462;-68
2021/06/07 01:04:32;;;;;;;29.60;26.00;;;17.90;99.90;;;;;;4975858;28;20537;-68
2021/06/07 01:06:58;;;;;;;28.10;24.80;;;17.90;99.90;;;;;;4975848;28;20468;-68
2021/06/07 01:09:26;;;;;;;28.60;25.57;;;17.90;99.90;;;;;;4975877;28;20459;-68
2021/06/07 01:11:52;;;;;;;29.30;25.13;;;17.90;99.90;;;;;;4975734;28;20439;-67
2021/06/07 01:14:18;;;;;;;32.63;25.13;;;17.90;99.90;;;;;;4975351;28;20461;-67
2021/06/07 01:16:45;;;;;;;29.80;26.60;;;18.00;99.90;;;;;;4975633;28;20478;-67
2021/06/07 01:19:12;;;;;;;32.10;26.63;;;18.00;99.90;;;;;;4975751;28;20824;-68
2021/06/07 01:21:38;;;;;;;30.67;26.10;;;18.00;99.90;;;;;;4975702;28;20455;-68
2021/06/07 01:24:07;;;;;;;30.73;26.10;;;17.90;99.90;;;;;;4975509;28;20482;-68
2021/06/07 01:26:33;;;;;;;33.50;26.47;;;17.90;99.90;;;;;;4975573;28;20525;-68
2021/06/07 01:29:00;;;;;;;30.30;25.60;;;17.90;99.90;;;;;;4975773;28;20458;-69
2021/06/07 01:31:26;;;;;;;34.97;28.33;;;17.90;99.90;;;;;;4975636;28;20454;-69
2021/06/07 01:33:54;;;;;;;29.80;25.30;;;17.80;99.90;;;;;;4975722;28;20455;-69
2021/06/07 01:36:21;;;;;;;32.97;27.17;;;17.80;99.90;;;;;;4975100;28;20486;-70
2021/06/07 01:38:47;;;;;;;33.70;25.63;;;17.80;99.90;;;;;;4975297;28;20493;-69
2021/06/07 01:41:17;;;;;;;39.27;27.40;;;17.80;99.90;;;;;;4975109;28;21004;-69
2021/06/07 01:43:46;;;;;;;34.97;28.07;;;17.80;99.90;;;;;;4975461;28;20462;-69
2021/06/07 01:46:12;;;;;;;33.10;27.43;;;17.80;99.90;;;;;;4975425;28;20475;-69
2021/06/07 01:48:38;;;;;;;41.57;28.70;;;17.70;99.90;;;;;;4974904;28;20815;-69
2021/06/07 01:51:06;;;;;;;40.70;28.10;;;17.70;99.90;;;;;;4975327;28;20454;-69
2021/06/07 01:53:33;;;;;;;38.10;27.50;;;17.70;99.90;;;;;;4975244;28;20821;-69
2021/06/07 01:56:02;;;;;;;38.93;28.57;;;17.70;99.90;;;;;;4975105;28;20479;-69
2021/06/07 01:58:30;;;;;;;39.80;29.67;;;17.70;99.90;;;;;;4975169;28;20455;-69
2021/06/07 02:01:00;;;;;;;39.50;28.90;;;17.70;99.90;;;;;;4975120;28;20513;-69
2021/06/07 02:03:27;;;;;;;36.20;27.73;;;17.70;99.90;;;;;;4975128;28;20459;-69
2021/06/07 02:05:56;;;;;;;41.23;30.17;;;17.70;99.90;;;;;;4975908;28;20486;-69
2021/06/07 02:08:23;;;;;;;38.27;27.57;;;17.60;99.90;;;;;;4976304;28;20455;-69
2021/06/07 02:10:52;;;;;;;36.83;28.13;;;17.50;99.90;;;;;;4979232;28;20454;-70
2021/06/07 02:13:19;;;;;;;39.43;27.83;;;17.60;99.90;;;;;;4979022;28;20454;-69
2021/06/07 02:15:56;;;;;;;37.50;28.10;;;17.60;99.90;;;;;;4979090;28;20478;-69
2021/06/07 02:18:22;;;;;;;34.53;28.27;;;17.60;99.90;;;;;;4979549;28;20443;-69
2021/06/07 02:20:49;;;;;;;39.50;28.20;;;17.60;99.90;;;;;;4978822;28;21012;-69
2021/06/07 02:23:15;;;;;;;38.30;29.30;;;17.60;99.90;;;;;;4978996;28;20463;-69
2021/06/07 02:25:41;;;;;;;38.20;27.70;;;17.60;99.90;;;;;;4978702;28;20902;-69
2021/06/07 02:28:11;;;;;;;43.43;29.37;;;17.60;99.90;;;;;;4979239;28;20458;-69
2021/06/07 02:30:38;;;;;;;38.33;27.73;;;17.50;99.90;;;;;;4978870;28;20513;-69
2021/06/07 02:33:06;;;;;;;40.80;29.03;;;17.60;99.90;;;;;;4978924;28;20461;-69
2021/06/07 02:35:32;;;;;;;45.97;27.27;;;17.50;99.90;;;;;;4986440;28;20482;-68
2021/06/07 02:37:59;;;;;;;41.30;28.67;;;17.50;99.90;;;;;;4985714;28;20856;-70
2021/06/07 02:40:28;;;;;;;44.37;29.80;;;17.50;99.90;;;;;;4978869;28;20458;-70
2021/06/07 02:42:55;;;;;;;41.07;29.10;;;17.50;99.90;;;;;;4978602;28;20478;-69
2021/06/07 02:45:22;;;;;;;44.43;29.60;;;17.50;99.90;;;;;;4979036;28;20538;-68
2021/06/07 02:47:50;;;;;;;45.40;30.70;;;17.50;99.90;;;;;;4978534;28;20454;-67
2021/06/07 02:50:21;;;;;;;43.17;30.30;;;17.40;99.90;;;;;;4978412;28;20458;-69
2021/06/07 02:52:48;;;;;;;41.30;30.00;;;17.40;99.90;;;;;;4978449;28;20442;-69
2021/06/07 02:55:20;;;;;;;45.33;30.23;;;17.40;99.90;;;;;;4978331;28;20475;-68
2021/06/07 02:57:47;;;;;;;41.10;30.30;;;17.40;99.90;;;;;;4978333;28;20902;-68
2021/06/07 03:00:16;;;;;;;40.70;28.60;;;17.40;99.90;;;;;;4978226;28;20485;-68
2021/06/07 03:02:42;;;;;;;47.37;31.00;;;17.40;99.90;;;;;;4978356;28;20458;-68
2021/06/07 03:05:09;;;;;;;43.17;30.77;;;17.40;99.90;;;;;;4978100;28;20485;-67
2021/06/07 03:07:37;;;;;;;44.70;31.20;;;17.40;99.90;;;;;;4978148;28;20788;-68
2021/06/07 03:10:05;;;;;;;46.73;31.47;;;17.40;99.90;;;;;;4978075;28;20459;-68
2021/06/07 03:12:32;;;;;;;41.90;29.60;;;17.40;99.90;;;;;;4978018;28;20458;-68
2021/06/07 03:14:58;;;;;;;48.80;32.60;;;17.50;99.90;;;;;;4977878;28;20474;-68
2021/06/07 03:17:24;;;;;;;45.60;31.40;;;17.50;99.90;;;;;;4977865;28;20461;-68
2021/06/07 03:19:51;;;;;;;44.90;30.53;;;17.40;99.90;;;;;;4977702;28;20513;-68
2021/06/07 03:22:20;;;;;;;46.87;30.83;;;17.40;99.90;;;;;;4977481;28;20466;-68
2021/06/07 03:24:48;;;;;;;47.47;32.90;;;17.30;99.90;;;;;;4978030;28;20581;-65
2021/06/07 03:27:14;;;;;;;45.80;31.70;;;17.30;99.90;;;;;;4977740;28;20454;-65
2021/06/07 03:29:40;;;;;;;44.33;30.30;;;17.30;99.90;;;;;;4977864;28;20459;-66
2021/06/07 03:32:08;;;;;;;44.93;31.53;;;17.30;99.90;;;;;;4977874;28;20458;-67
2021/06/07 03:34:34;;;;;;;44.20;29.33;;;17.30;99.90;;;;;;4977450;28;20455;-66
2021/06/07 03:37:00;;;;;;;42.93;29.93;;;17.30;99.90;;;;;;4977453;28;20941;-66
2021/06/07 03:39:26;;;;;;;45.03;29.57;;;17.40;99.90;;;;;;4977572;28;20466;-65
2021/06/07 03:41:54;;;;;;;42.23;30.10;;;17.50;99.90;;;;;;4977333;28;21008;-67
2021/06/07 03:44:20;;;;;;;40.60;30.40;;;17.50;99.90;;;;;;4977354;28;21019;-66
2021/06/07 03:46:46;;;;;;;41.63;30.07;;;17.60;99.90;;;;;;4977347;28;20485;-66
2021/06/07 03:49:13;;;;;;;39.17;29.80;;;17.60;99.90;;;;;;4977537;28;20458;-66
2021/06/07 03:51:39;;;;;;;45.47;30.77;;;17.60;99.90;;;;;;4977326;28;20455;-65
2021/06/07 03:54:05;;;;;;;43.10;30.80;;;17.60;99.90;;;;;;4977275;28;20446;-65
2021/06/07 03:56:31;;;;;;;45.13;30.47;;;17.60;99.90;;;;;;4977338;28;20475;-65
2021/06/07 03:58:59;;;;;;;44.23;31.60;;;17.60;99.90;;;;;;4977333;28;20506;-65
2021/06/07 04:01:25;;;;;;;41.77;30.37;;;17.50;99.90;;;;;;4977330;28;20489;-65
2021/06/07 04:03:51;;;;;;;47.03;29.20;;;17.50;99.90;;;;;;4976988;28;20459;-65
2021/06/07 04:06:19;;;;;;;41.27;29.63;;;17.50;99.90;;;;;;4976801;28;20481;-66
2021/06/07 04:08:46;;;;;;;42.80;30.83;;;17.50;99.90;;;;;;4977055;28;20455;-65
2021/06/07 04:11:12;;;;;;;43.77;32.30;;;17.50;99.90;;;;;;4977019;28;20458;-67
2021/06/07 04:13:38;;;;;;;48.73;31.33;;;17.50;99.90;;;;;;4976886;28;20466;-67
2021/06/07 04:16:06;;;;;;;43.47;30.90;;;17.50;99.90;;;;;;4977004;28;20474;-67
2021/06/07 04:18:32;;;;;;;46.87;30.43;;;17.50;99.90;;;;;;4976806;28;20463;-67
2021/06/07 04:20:58;;;;;;;44.20;30.23;;;17.50;99.90;;;;;;4976967;28;20435;-66
2021/06/07 04:23:24;;;;;;;42.57;30.67;;;17.50;99.90;;;;;;4976786;28;20505;-67
2021/06/07 04:25:51;;;;;;;46.77;31.33;;;17.40;99.90;;;;;;4976437;28;20489;-67
2021/06/07 04:28:17;;;;;;;50.20;30.40;;;17.50;99.90;;;;;;4976752;28;20869;-67
2021/06/07 04:30:43;;;;;;;51.07;30.73;;;17.40;99.90;;;;;;4975606;28;20451;-66
2021/06/07 04:33:11;;;;;;;41.67;30.13;;;17.40;99.90;;;;;;4976283;28;20964;-66
2021/06/07 04:35:37;;;;;;;41.63;29.73;;;17.50;99.90;;;;;;4976174;28;20479;-66
2021/06/07 04:38:04;;;;;;;48.10;28.80;;;17.50;99.90;;;;;;4976242;28;20454;-66
2021/06/07 04:40:32;;;;;;;44.27;30.60;;;17.60;99.90;;;;;;4976079;28;20458;-66
2021/06/07 04:43:00;;;;;;;41.03;29.20;;;17.60;99.90;;;;;;4976423;28;20463;-66
2021/06/07 04:45:28;;;;;;;41.07;30.23;;;17.60;99.90;;;;;;4975907;28;20854;-67
2021/06/07 04:47:54;;;;;;;42.37;30.00;;;17.60;99.90;;;;;;4976543;28;20482;-66
2021/06/07 04:50:24;;;;;;;46.10;29.27;;;17.60;99.90;;;;;;4976180;28;20466;-66
2021/06/07 04:52:57;;;;;;;44.17;31.03;;;17.60;99.90;;;;;;4975951;28;21009;-67
2021/06/07 04:55:30;;;;;;;43.97;30.27;;;17.70;99.90;;;;;;4976532;28;20474;-67
2021/06/07 04:57:56;;;;;;;42.50;29.80;;;17.70;99.90;;;;;;4976305;28;20506;-67
2021/06/07 05:00:24;;;;;;;49.27;31.67;;;17.60;99.90;;;;;;4977140;28;20458;-66
2021/06/07 05:02:51;;;;;;;37.17;26.23;;;17.50;99.90;;;;;;4977317;28;20489;-65
2021/06/07 05:05:18;;;;;;;43.47;28.93;;;17.60;99.90;;;;;;4976980;28;20491;-65
2021/06/07 05:07:46;;;;;;;43.57;27.50;;;17.60;99.90;;;;;;4977402;28;20486;-67
2021/06/07 05:10:13;;;;;;;34.13;25.07;;;17.70;99.90;;;;;;4977268;28;20466;-66
2021/06/07 05:12:40;;;;;;;40.67;29.17;;;17.90;99.90;;;;;;4976569;28;20455;-66
2021/06/07 05:15:08;;;;;;;38.90;28.00;;;17.90;99.90;;;;;;4976149;28;20529;-67
2021/06/07 05:17:35;;;;;;;37.13;27.80;;;17.90;99.90;;;;;;4975910;28;20458;-66
2021/06/07 05:20:01;;;;;;;36.53;26.97;;;18.10;99.90;;;;;;4976114;28;20435;-66
2021/06/07 05:22:27;;;;;;;36.30;26.40;;;18.30;99.90;;;;;;4975783;28;20447;-66
2021/06/07 05:24:55;;;;;;;38.70;28.70;;;18.40;99.90;;;;;;4975306;28;20483;-66
2021/06/07 05:27:21;;;;;;;36.07;26.90;;;18.40;99.90;;;;;;4975422;28;20458;-66
2021/06/07 05:29:47;;;;;;;39.37;28.00;;;18.50;99.90;;;;;;4975553;28;20461;-67
2021/06/07 05:32:13;;;;;;;39.50;29.70;;;18.40;99.90;;;;;;4975558;28;20482;-66
2021/06/07 05:34:40;;;;;;;44.43;31.90;;;18.30;99.90;;;;;;4975928;28;20455;-65
2021/06/07 05:37:06;;;;;;;42.43;29.77;;;18.10;99.90;;;;;;4975499;28;20450;-66
2021/06/07 05:39:32;;;;;;;39.93;28.53;;;18.10;99.90;;;;;;4975146;28;20923;-66
2021/06/07 05:42:01;;;;;;;40.90;28.90;;;18.10;99.90;;;;;;4975006;28;20956;-66
2021/06/07 05:44:27;;;;;;;41.43;28.97;;;18.00;99.90;;;;;;4975044;28;20582;-65
2021/06/07 05:46:53;;;;;;;36.70;29.23;;;18.00;99.90;;;;;;4975585;28;20462;-66
2021/06/07 05:49:20;;;;;;;43.63;29.80;;;18.00;99.90;;;;;;4974953;28;20941;-66
2021/06/07 05:51:46;;;;;;;38.50;28.33;;;17.90;99.90;;;;;;4975141;28;20463;-68
2021/06/07 05:54:12;;;;;;;38.53;28.47;;;18.00;99.90;;;;;;4976127;28;20800;-66
2021/06/07 05:56:39;;;;;;;40.57;29.10;;;18.00;99.90;;;;;;4975214;28;20483;-66
2021/06/07 05:59:08;;;;;;;38.37;27.93;;;18.10;99.90;;;;;;4975244;28;20826;-66
2021/06/07 06:01:35;;;;;;;45.43;29.83;;;18.10;99.90;;;;;;4975202;28;20454;-65
2021/06/07 06:04:02;;;;;;;41.50;30.50;;;18.10;99.90;;;;;;4975028;28;20828;-66
2021/06/07 06:06:29;;;;;;;43.47;32.37;;;18.10;99.90;;;;;;4974944;28;20880;-66
2021/06/07 06:08:55;;;;;;;44.07;29.90;;;18.00;99.90;;;;;;4975297;28;20469;-65
2021/06/07 06:11:22;;;;;;;43.37;28.70;;;17.90;99.90;;;;;;4976058;28;20443;-66
2021/06/07 06:13:50;;;;;;;40.23;28.33;;;17.90;99.90;;;;;;4974769;28;20463;-67
2021/06/07 06:16:19;;;;;;;34.80;27.47;;;17.80;99.90;;;;;;4975173;28;20479;-68
2021/06/07 06:18:45;;;;;;;34.23;26.37;;;17.80;99.90;;;;;;4975013;28;20858;-67
2021/06/07 06:21:12;;;;;;;35.83;25.87;;;17.80;99.90;;;;;;4975076;28;20463;-68
2021/06/07 06:23:39;;;;;;;34.40;25.17;;;17.80;99.90;;;;;;4975632;28;20458;-66
2021/06/07 06:26:06;;;;;;;38.63;24.90;;;17.90;99.90;;;;;;4974965;28;20981;-68
2021/06/07 06:28:32;;;;;;;28.87;23.80;;;17.90;99.90;;;;;;4975558;28;20455;-67
2021/06/07 06:30:58;;;;;;;31.70;24.60;;;17.90;99.90;;;;;;4974967;28;20443;-67
2021/06/07 06:33:26;;;;;;;32.27;23.77;;;17.90;99.90;;;;;;4974942;28;20459;-68
2021/06/07 06:35:52;;;;;;;30.23;23.37;;;17.90;99.90;;;;;;4974489;28;20501;-68
2021/06/07 06:38:18;;;;;;;30.97;22.47;;;17.90;99.90;;;;;;4974760;28;20442;-67
2021/06/07 06:40:44;;;;;;;33.17;22.90;;;17.80;99.90;;;;;;4974789;28;20478;-67
2021/06/07 06:43:11;;;;;;;28.60;22.20;;;17.90;99.90;;;;;;4974812;28;20512;-68
2021/06/07 06:45:37;;;;;;;26.97;22.03;;;17.90;99.90;;;;;;4974738;28;20483;-66
2021/06/07 06:48:05;;;;;;;32.50;23.00;;;17.80;99.90;;;;;;4974725;28;20525;-67
2021/06/07 06:50:35;;;;;;;27.53;20.50;;;17.90;99.90;;;;;;4974907;28;20535;-67
2021/06/07 06:53:03;;;;;;;31.97;20.97;;;17.80;99.90;;;;;;4974804;28;20450;-68
2021/06/07 06:55:29;;;;;;;28.77;22.53;;;17.80;99.90;;;;;;4977417;28;20471;-68
2021/06/07 06:57:55;;;;;;;27.70;20.13;;;17.80;99.90;;;;;;4978084;28;20921;-67
2021/06/07 07:00:22;;;;;;;26.47;20.97;;;17.80;99.90;;;;;;4978142;28;20457;-67
2021/06/07 07:02:49;;;;;;;27.97;21.47;;;17.80;99.90;;;;;;4978236;28;20505;-67
2021/06/07 07:05:15;;;;;;;28.00;20.70;;;17.80;99.90;;;;;;4977530;28;20845;-67
2021/06/07 07:07:43;;;;;;;26.00;21.27;;;17.90;99.90;;;;;;4977659;28;20454;-67
2021/06/07 07:10:11;;;;;;;28.83;19.73;;;17.90;99.90;;;;;;4978162;28;20454;-66
2021/06/07 07:12:38;;;;;;;31.60;22.13;;;17.90;99.90;;;;;;4978307;28;20810;-66
2021/06/07 07:15:05;;;;;;;27.40;20.87;;;17.90;99.90;;;;;;4977704;28;20992;-66
2021/06/07 07:17:32;;;;;;;29.80;20.47;;;17.90;99.90;;;;;;4978123;28;20443;-67
2021/06/07 07:19:58;;;;;;;32.40;21.80;;;17.90;99.90;;;;;;4978052;28;20811;-66
2021/06/07 07:22:24;;;;;;;29.13;21.47;;;17.90;99.90;;;;;;4978041;28;20459;-66
2021/06/07 07:24:52;;;;;;;30.20;22.53;;;17.90;99.90;;;;;;4977798;28;20516;-67
2021/06/07 07:27:19;;;;;;;30.03;22.57;;;17.90;99.90;;;;;;4977888;28;20521;-66
2021/06/07 07:29:46;;;;;;;27.10;21.70;;;18.00;99.90;;;;;;4977272;28;20451;-66
2021/06/07 07:32:12;;;;;;;25.60;21.20;;;18.10;99.90;;;;;;4978465;28;20462;-65
2021/06/07 07:34:40;;;;;;;24.80;20.70;;;18.10;99.90;;;;;;4977095;28;20493;-66
2021/06/07 07:37:07;;;;;;;28.60;21.93;;;18.10;99.90;;;;;;4977507;28;20814;-66
2021/06/07 07:39:34;;;;;;;32.17;22.37;;;18.20;99.90;;;;;;4977504;28;20458;-67
2021/06/07 07:42:03;;;;;;;27.77;22.80;;;18.10;99.90;;;;;;4977631;28;20443;-67
2021/06/07 07:44:29;;;;;;;30.83;21.43;;;18.20;99.90;;;;;;4978033;28;20474;-66
2021/06/07 07:46:57;;;;;;;27.57;20.93;;;18.20;99.90;;;;;;4979813;28;20462;-66
2021/06/07 07:49:26;;;;;;;28.37;22.23;;;18.30;99.90;;;;;;4979206;28;20462;-66
2021/06/07 07:51:52;;;;;;;25.27;21.40;;;18.30;99.90;;;;;;4979626;28;20451;-65
2021/06/07 07:54:18;;;;;;;29.53;20.97;;;18.40;99.90;;;;;;4977623;28;20454;-65
2021/06/07 07:56:45;;;;;;;24.70;20.03;;;18.40;99.90;;;;;;4977298;28;20525;-65
2021/06/07 07:59:12;;;;;;;27.67;22.10;;;18.50;99.90;;;;;;4977668;28;20458;-66
2021/06/07 08:01:41;;;;;;;27.40;21.50;;;18.50;99.90;;;;;;4976633;28;20910;-66
2021/06/07 08:04:07;;;;;;;27.83;22.47;;;18.40;99.90;;;;;;4977258;28;20578;-65
2021/06/07 08:06:33;;;;;;;26.63;21.23;;;18.40;99.90;;;;;;4975710;28;20478;-64
2021/06/07 08:09:00;;;;;;;24.07;19.73;;;18.50;99.90;;;;;;4977124;28;20463;-66
2021/06/07 08:11:26;;;;;;;24.77;21.37;;;18.70;99.90;;;;;;4977079;28;20462;-66
2021/06/07 08:13:52;;;;;;;25.60;21.50;;;18.80;99.90;;;;;;4977385;28;20458;-67
2021/06/07 08:16:20;;;;;;;23.70;21.13;;;19.00;99.90;;;;;;4976968;28;20481;-66
2021/06/07 08:18:46;;;;;;;22.93;20.53;;;19.00;99.90;;;;;;4976836;28;20450;-66
2021/06/07 08:21:12;;;;;;;27.30;21.90;;;19.00;99.90;;;;;;4976764;28;20435;-66
2021/06/07 08:23:38;;;;;;;24.40;20.60;;;19.10;99.90;;;;;;4976458;28;20455;-65
2021/06/07 08:26:05;;;;;;;24.77;21.90;;;19.10;99.90;;;;;;4976332;28;20509;-66
2021/06/07 08:28:31;;;;;;;29.73;20.77;;;19.00;99.90;;;;;;4976524;28;20651;-67
2021/06/07 08:30:57;;;;;;;22.63;20.37;;;19.20;99.90;;;;;;4976125;28;20455;-66
2021/06/07 08:33:25;;;;;;;24.23;21.37;;;19.20;99.90;;;;;;4976607;28;20447;-66
2021/06/07 08:35:51;;;;;;;22.67;20.27;;;19.20;99.90;;;;;;4976207;28;20478;-67
2021/06/07 08:38:18;;;;;;;25.50;21.40;;;19.10;99.90;;;;;;4976509;28;20462;-66
2021/06/07 08:40:46;;;;;;;28.30;21.00;;;19.00;99.90;;;;;;4976070;28;20957;-66
2021/06/07 08:43:13;;;;;;;23.80;21.30;;;19.10;99.90;;;;;;4976492;28;20486;-66
2021/06/07 08:45:39;;;;;;;23.93;20.90;;;19.10;99.90;;;;;;4976159;28;20483;-66
2021/06/07 08:48:07;;;;;;;24.43;21.57;;;19.20;99.90;;;;;;4976145;28;20446;-66
2021/06/07 08:50:34;;;;;;;27.90;21.23;;;19.30;99.90;;;;;;4976042;28;20517;-65
2021/06/07 08:53:01;;;;;;;25.13;22.17;;;19.20;99.90;;;;;;4976186;28;20459;-65
2021/06/07 08:55:29;;;;;;;28.10;22.30;;;19.30;99.90;;;;;;4975805;28;20474;-66
2021/06/07 08:57:57;;;;;;;21.97;19.63;;;19.10;99.90;;;;;;4976132;28;20493;-66
2021/06/07 09:00:25;;;;;;;22.77;20.07;;;19.10;99.90;;;;;;4975807;28;20945;-65
2021/06/07 09:02:58;;;;;;;23.10;20.70;;;19.20;99.90;;;;;;4976084;28;20442;-65
2021/06/07 09:05:24;;;;;;;23.70;21.20;;;19.30;99.90;;;;;;4975995;28;20509;-66
2021/06/07 09:07:57;;;;;;;22.80;20.37;;;19.30;99.90;;;;;;4975969;28;20455;-66
2021/06/07 09:10:26;;;;;;;22.67;20.43;;;19.40;99.90;;;;;;4976084;28;20482;-66
2021/06/07 09:12:54;;;;;;;24.93;19.93;;;19.40;99.90;;;;;;4975909;28;20462;-66
2021/06/07 09:15:29;;;;;;;26.70;21.07;;;19.30;99.90;;;;;;4975714;28;20475;-67
2021/06/07 09:17:56;;;;;;;25.20;22.60;;;19.30;99.90;;;;;;4975267;28;20442;-66
2021/06/07 09:20:23;;;;;;;24.13;21.73;;;19.40;99.90;;;;;;4975694;28;20462;-66
2021/06/07 09:22:54;;;;;;;23.73;21.40;;;19.40;99.90;;;;;;4975499;28;20948;-67
2021/06/07 09:25:23;;;;;;;23.97;21.57;;;19.50;99.90;;;;;;4975414;28;20486;-67
2021/06/07 09:28:20;;;;;;;23.47;21.10;;;19.50;99.90;;;;;;4975466;28;20454;-67
2021/06/07 09:30:50;;;;;;;22.30;19.90;;;19.70;99.90;;;;;;4942442;28;20490;-66
2021/06/07 09:33:29;;;;;;;23.80;21.50;;;19.70;99.90;;;;;;4975559;28;20446;-66
2021/06/07 09:36:14;;;;;;;25.50;22.80;;;19.70;99.90;;;;;;4975213;28;20474;-67
2021/06/07 09:39:09;;;;;;;24.70;22.30;;;19.70;99.90;;;;;;4975619;28;20467;-67
2021/06/07 09:41:54;;;;;;;23.70;21.20;;;19.70;99.90;;;;;;4975541;28;20446;-67
2021/06/07 09:44:28;;;;;;;25.50;21.60;;;19.70;99.90;;;;;;4975812;28;20525;-66
2021/06/07 09:47:12;;;;;;;22.97;20.73;;;19.70;99.90;;;;;;4975216;28;20561;-67
2021/06/07 09:49:41;;;;;;;23.20;21.10;;;19.70;99.90;;;;;;4975220;28;20442;-67
2021/06/07 09:52:10;;;;;;;23.80;21.50;;;19.70;99.90;;;;;;4975141;28;20465;-66
2021/06/07 09:54:38;;;;;;;24.73;22.00;;;19.80;99.90;;;;;;4975261;28;20467;-65
2021/06/07 09:57:05;;;;;;;24.87;22.10;;;19.70;99.90;;;;;;4975585;28;20458;-67
2021/06/07 09:59:34;;;;;;;24.77;22.27;;;19.70;99.90;;;;;;4975355;28;20463;-66
2021/06/07 10:02:02;;;;;;;24.20;21.53;;;19.70;99.90;;;;;;4975053;28;20461;-66
2021/06/07 10:04:51;;;;;;;27.30;24.20;;;19.90;99.90;;;;;;4975042;28;20467;-66
2021/06/07 10:07:17;;;;;;;24.43;22.07;;;19.90;99.90;;;;;;4975198;28;20450;-66
2021/06/07 10:10:13;;;;;;;24.93;22.20;;;19.90;99.90;;;;;;4975149;28;20455;-66
2021/06/07 10:12:41;;;;;;;23.80;21.30;;;20.00;99.90;;;;;;4969624;28;20850;-65
2021/06/07 10:15:08;;;;;;;25.00;22.37;;;19.90;99.90;;;;;;4975171;28;20467;-66
2021/06/07 10:17:35;;;;;;;26.07;23.40;;;19.90;99.90;;;;;;4974970;28;20458;-66
2021/06/07 10:22:46;;;;;;;25.67;23.07;;;19.90;99.90;;;;;;4975151;28;20421;-66
2021/06/07 10:25:13;;;;;;;24.73;22.23;;;20.00;99.90;;;;;;4974733;28;20483;-66
2021/06/07 10:27:40;;;;;;;23.07;20.77;;;20.00;99.90;;;;;;4975130;28;20466;-66
2021/06/07 10:30:17;;;;;;;24.23;21.90;;;20.20;99.90;;;;;;4977181;28;20458;-66
2021/06/07 10:32:44;;;;;;;25.63;21.73;;;20.30;99.90;;;;;;4978944;28;20448;-66
2021/06/07 10:35:12;;;;;;;23.57;21.17;;;20.40;99.90;;;;;;4978507;28;20482;-66
2021/06/07 10:37:57;;;;;;;31.50;23.40;;;20.50;99.90;;;;;;4978444;28;20446;-66
2021/06/07 10:40:27;;;;;;;24.07;21.67;;;20.50;99.90;;;;;;4979287;28;20435;-65
2021/06/07 10:42:54;;;;;;;24.93;22.43;;;20.60;99.90;;;;;;4978914;28;20802;-66
2021/06/07 10:45:23;;;;;;;22.73;20.40;;;20.90;99.90;;;;;;4978597;28;20537;-65
2021/06/07 10:47:50;;;;;;;23.83;21.43;;;21.00;99.90;;;;;;4978940;28;20462;-66
2021/06/07 10:50:20;;;;;;;23.17;20.73;;;21.20;99.90;;;;;;4978662;28;20454;-66
2021/06/07 10:52:50;;;;;;;21.53;19.23;;;21.30;99.90;;;;;;4978473;28;20454;-66
2021/06/07 10:55:23;;;;;;;21.30;19.30;;;21.60;99.90;;;;;;4978300;28;20474;-66
2021/06/07 10:57:56;;;;;;;20.00;18.00;;;21.70;99.90;;;;;;4978461;28;20795;-66
2021/06/07 11:00:42;;;;;;;20.30;18.40;;;22.00;99.90;;;;;;4978207;28;20818;-66
2021/06/07 11:03:17;;;;;;;25.83;23.13;;;21.90;99.90;;;;;;4978221;28;20434;-66
2021/06/07 11:05:44;;;;;;;24.47;21.97;;;21.60;99.90;;;;;;4978180;28;20490;-67
2021/06/07 11:08:16;;;;;;;23.97;21.77;;;21.50;99.90;;;;;;4978381;28;20558;-66
2021/06/07 11:10:43;;;;;;;25.30;21.60;;;21.70;99.90;;;;;;4978252;28;20839;-66
2021/06/07 11:13:13;;;;;;;24.90;22.60;;;21.70;99.90;;;;;;4978138;28;20451;-65
2021/06/07 11:15:45;;;;;;;23.87;21.57;;;21.60;99.90;;;;;;4977994;28;20466;-66
2021/06/07 11:18:21;;;;;;;25.17;22.77;;;21.60;99.90;;;;;;4978096;28;20627;-66
2021/06/07 11:20:48;;;;;;;26.40;23.87;;;21.60;99.90;;;;;;4977932;28;20454;-66
2021/06/07 11:23:16;;;;;;;25.70;23.10;;;21.50;99.90;;;;;;4977767;28;20465;-66
2021/06/07 11:25:46;;;;;;;27.13;24.47;;;21.50;99.90;;;;;;4977555;28;20490;-65
2021/06/07 11:28:41;;;;;;;28.43;25.63;;;21.20;99.90;;;;;;4977734;28;20537;-66
2021/06/07 11:31:50;;;;;;;25.70;23.23;;;21.20;99.90;;;;;;4977657;28;20450;-66
2021/06/07 11:34:20;;;;;;;29.53;26.70;;;21.20;99.90;;;;;;4977668;28;20772;-66
2021/06/07 11:36:56;;;;;;;24.70;22.10;;;21.20;99.90;;;;;;4977247;28;20488;-66
2021/06/07 11:39:24;;;;;;;26.03;23.60;;;21.10;99.90;;;;;;4977955;28;20443;-66
2021/06/07 11:41:53;;;;;;;27.27;24.57;;;21.20;99.90;;;;;;4977647;28;20458;-66
2021/06/07 11:44:56;;;;;;;27.27;24.50;;;21.20;99.90;;;;;;4977900;28;20953;-65
2021/06/07 11:47:24;;;;;;;25.70;23.20;;;21.10;99.90;;;;;;4978026;28;20447;-67
2021/06/07 11:50:09;;;;;;;26.17;23.63;;;21.20;99.90;;;;;;4977469;28;20454;-66
2021/06/07 11:52:50;;;;;;;26.53;21.73;;;21.30;99.90;;;;;;4977379;28;20439;-66
2021/06/07 11:55:23;;;;;;;24.73;22.03;;;21.40;99.90;;;;;;4977409;28;20502;-66
2021/06/07 11:57:51;;;;;;;25.67;23.17;;;21.30;99.90;;;;;;4977480;28;20501;-66
2021/06/07 12:00:20;;;;;;;25.53;23.00;;;21.30;99.90;;;;;;4977436;28;20450;-66
2021/06/07 12:02:46;;;;;;;25.77;23.27;;;21.20;99.90;;;;;;4977644;28;20586;-67
2021/06/07 12:05:14;;;;;;;26.60;23.93;;;21.30;99.90;;;;;;4976823;28;20590;-66
2021/06/07 12:07:45;;;;;;;25.50;23.10;;;21.50;99.90;;;;;;4977301;28;20968;-66
2021/06/07 12:10:14;;;;;;;23.07;20.77;;;21.60;99.90;;;;;;4977027;28;20446;-66
2021/06/07 12:12:40;;;;;;;28.50;23.80;;;21.70;99.90;;;;;;4977176;28;20462;-67
2021/06/07 12:15:12;;;;;;;25.20;22.80;;;22.00;99.90;;;;;;4977144;28;20526;-67
2021/06/07 12:17:45;;;;;;;28.30;22.70;;;21.90;99.90;;;;;;4977181;28;20454;-66
2021/06/07 12:20:13;;;;;;;26.87;24.27;;;22.00;99.90;;;;;;4977747;28;20773;-66
2021/06/07 12:22:42;;;;;;;26.50;23.90;;;21.90;99.90;;;;;;4976894;28;20455;-66
2021/06/07 12:25:19;;;;;;;24.70;22.40;;;21.80;99.90;;;;;;4976793;28;20491;-66
2021/06/07 12:30:32;;;;;;;23.17;21.07;;;21.80;99.90;;;;;;4976887;28;20422;-66
2021/06/07 12:32:59;;;;;;;23.77;21.50;;;21.50;99.90;;;;;;4977420;28;20434;-66
2021/06/07 12:35:28;;;;;;;25.43;22.83;;;21.60;99.90;;;;;;4976454;28;20474;-66
2021/06/07 12:37:59;;;;;;;26.80;24.03;;;21.50;99.90;;;;;;4976865;28;20455;-66
2021/06/07 12:40:29;;;;;;;26.20;23.63;;;21.60;99.90;;;;;;4977115;28;20434;-66
2021/06/07 12:42:59;;;;;;;26.50;23.90;;;21.70;99.90;;;;;;4976472;28;20458;-66
2021/06/07 12:45:27;;;;;;;23.73;21.60;;;21.70;99.90;;;;;;4975875;28;20481;-66
2021/06/07 12:47:55;;;;;;;27.53;25.07;;;21.80;99.90;;;;;;4976230;28;20509;-66
2021/06/07 12:50:25;;;;;;;25.07;22.77;;;21.90;99.90;;;;;;4976293;28;20801;-68
2021/06/07 12:52:53;;;;;;;25.90;23.40;;;22.00;99.90;;;;;;4975690;28;20443;-66
2021/06/07 12:55:23;;;;;;;27.07;24.53;;;21.90;99.90;;;;;;4975905;28;20470;-64
2021/06/07 12:57:51;;;;;;;27.27;24.47;;;21.80;99.90;;;;;;4976338;28;20443;-66
2021/06/07 13:00:39;;;;;;;24.33;21.90;;;21.90;99.90;;;;;;4976201;28;20459;-63
2021/06/07 13:03:24;;;;;;;24.93;22.60;;;21.90;99.90;;;;;;4975980;28;20849;-63
2021/06/07 13:06:06;;;;;;;27.33;24.60;;;21.80;99.90;;;;;;4976250;28;20492;-63
2021/06/07 13:08:33;;;;;;;27.50;24.80;;;21.70;99.90;;;;;;4976506;28;20442;-64
2021/06/07 13:11:04;;;;;;;27.57;24.57;;;21.80;99.90;;;;;;4975768;28;20459;-65
2021/06/07 13:13:33;;;;;;;28.00;25.10;;;22.00;99.90;;;;;;4975902;28;20447;-70
2021/06/07 13:16:05;;;;;;;27.33;24.53;;;22.00;99.90;;;;;;4975862;28;20475;-64